Time;durP1;ratioP1;P1;durP2;ratioP2;P2;SDS_P1;SDS_P2;PMS_P1;PMS_P2;Temp;Humidity;BMP_temperature;BMP_pressure;BME280_temperature;BME280_humidity;BME280_pressure;Samples;Min_cycle;Max_cycle;Signal;HPM_P1;HPM_P2
2022/12/12 00:00:31;;;;;;;34.13;19.07;;;;;;;-3.05;88.76;94766.44;4977140;28;20189;-82
2022/12/12 00:02:57;;;;;;;34.10;19.80;;;;;;;-3.24;89.03;94771.72;4979697;28;20192;-81
2022/12/12 00:05:22;;;;;;;37.20;19.60;;;;;;;-3.27;89.27;94775.25;4989862;28;20305;-81
2022/12/12 00:07:47;;;;;;;34.20;20.13;;;;;;;-3.13;89.41;94767.66;4985084;28;20726;-80
2022/12/12 00:10:12;;;;;;;37.20;20.57;;;;;;;-3.01;87.92;94768.69;4980518;28;20202;-80
2022/12/12 00:12:38;;;;;;;37.30;21.33;;;;;;;-2.94;88.10;94771.72;4981640;28;20590;-81
2022/12/12 00:15:04;;;;;;;37.50;20.33;;;;;;;-3.14;88.38;94767.75;4987221;28;20208;-81
2022/12/12 00:17:29;;;;;;;34.43;19.70;;;;;;;-3.07;88.96;94769.06;5000562;28;20215;-81
2022/12/12 00:19:54;;;;;;;35.23;19.80;;;;;;;-3.10;88.60;94769.22;4979433;28;20184;-82
2022/12/12 00:22:20;;;;;;;37.80;20.47;;;;;;;-3.15;88.68;94761.88;4986244;28;20243;-80
2022/12/12 00:24:48;;;;;;;38.13;20.33;;;;;;;-3.06;89.05;94764.78;4997738;28;20224;-80
2022/12/12 00:27:14;;;;;;;38.77;19.83;;;;;;;-3.06;88.76;94759.72;4980570;28;20176;-78
2022/12/12 00:29:39;;;;;;;34.83;19.63;;;;;;;-3.05;88.56;94761.34;4976859;28;20180;-81
2022/12/12 00:32:05;;;;;;;40.90;18.93;;;;;;;-3.03;87.70;94762.06;4989182;28;20188;-81
2022/12/12 00:34:30;;;;;;;35.80;20.20;;;;;;;-3.24;88.24;94767.44;4982890;28;20227;-81
2022/12/12 00:36:55;;;;;;;32.20;18.63;;;;;;;-3.22;87.70;94755.47;4979460;28;20196;-80
2022/12/12 00:39:22;;;;;;;34.70;19.03;;;;;;;-3.17;88.15;94757.78;4994332;28;20609;-79
2022/12/12 00:41:48;;;;;;;36.30;19.37;;;;;;;-3.14;88.12;94763.50;4990483;28;20248;-80
2022/12/12 00:44:13;;;;;;;38.00;18.67;;;;;;;-3.15;88.21;94766.94;4995774;28;20649;-81
2022/12/12 00:46:38;;;;;;;32.70;18.83;;;;;;;-3.08;87.78;94769.97;4992287;28;20636;-83
2022/12/12 00:49:04;;;;;;;36.93;18.20;;;;;;;-3.06;87.30;94759.72;4989972;28;20185;-82
2022/12/12 00:51:29;;;;;;;34.93;18.40;;;;;;;-2.99;86.45;94766.09;4969032;28;20224;-82
2022/12/12 00:53:56;;;;;;;36.07;18.57;;;;;;;-3.00;87.10;94760.19;5006344;28;20256;-81
2022/12/12 00:56:22;;;;;;;30.00;17.93;;;;;;;-3.02;86.98;94763.72;4973916;28;20354;-83
2022/12/12 00:58:48;;;;;;;28.60;18.20;;;;;;;-2.99;87.50;94768.63;4984464;28;20186;-82
2022/12/12 01:01:17;;;;;;;34.07;18.10;;;;;;;-3.15;87.25;94772.03;4995599;28;20335;-82
2022/12/12 01:03:42;;;;;;;27.57;17.03;;;;;;;-3.05;87.50;94772.31;4989862;28;20194;-81
2022/12/12 01:06:08;;;;;;;30.37;17.20;;;;;;;-3.02;87.27;94769.59;4993427;28;20208;-82
2022/12/12 01:08:33;;;;;;;32.43;18.33;;;;;;;-2.96;87.09;94773.53;4965866;28;20184;-80
2022/12/12 01:10:59;;;;;;;33.83;17.87;;;;;;;-3.08;86.92;94776.78;4980849;28;20187;-81
2022/12/12 01:13:24;;;;;;;35.63;17.43;;;;;;;-2.99;86.73;94772.00;4995764;28;20180;-81
2022/12/12 01:15:50;;;;;;;32.23;18.80;;;;;;;-2.94;86.55;94775.09;4972331;28;20231;-82
2022/12/12 01:18:16;;;;;;;31.60;17.47;;;;;;;-2.94;86.25;94774.25;4971443;28;20203;-80
2022/12/12 01:20:42;;;;;;;29.90;17.40;;;;;;;-2.90;86.34;94773.22;4980372;28;20220;-82
2022/12/12 01:23:07;;;;;;;32.40;17.47;;;;;;;-3.05;86.12;94777.41;4994383;28;20710;-80
2022/12/12 01:25:33;;;;;;;29.90;17.63;;;;;;;-3.10;86.13;94776.00;4974202;28;20738;-81
2022/12/12 01:27:58;;;;;;;30.17;16.47;;;;;;;-3.04;87.01;94778.22;4995447;28;20186;-81
2022/12/12 01:30:23;;;;;;;34.70;17.77;;;;;;;-2.99;86.59;94773.72;4988313;28;20211;-81
2022/12/12 01:32:49;;;;;;;31.13;16.50;;;;;;;-3.05;86.90;94776.59;4987731;28;20191;-82
2022/12/12 01:35:14;;;;;;;33.20;18.20;;;;;;;-3.02;86.34;94773.88;4992786;28;20626;-81
2022/12/12 01:37:40;;;;;;;27.73;16.87;;;;;;;-2.97;86.29;94782.06;4992381;28;20268;-82
2022/12/12 01:40:12;;;;;;;30.07;17.50;;;;;;;-2.93;86.13;94779.25;4970937;28;20189;-82
2022/12/12 01:42:37;;;;;;;30.10;16.57;;;;;;;-2.96;85.54;94779.44;4992351;28;20180;-81
2022/12/12 01:45:03;;;;;;;29.83;15.50;;;;;;;-2.93;85.06;94778.44;4976317;28;20212;-81
2022/12/12 01:47:28;;;;;;;32.10;17.70;;;;;;;-3.06;85.17;94785.13;4981926;28;20206;-81
2022/12/12 01:50:04;;;;;;;30.00;16.73;;;;;;;-3.18;86.16;94796.75;4987566;28;20199;-80
2022/12/12 01:52:43;;;;;;;31.17;16.97;;;;;;;-3.23;86.64;94799.56;4977187;28;20199;-82
2022/12/12 01:55:13;;;;;;;34.47;17.50;;;;;;;-3.27;86.89;94800.63;4990331;28;20242;-81
2022/12/12 01:57:40;;;;;;;30.60;17.13;;;;;;;-3.30;86.91;94802.50;4969608;28;20227;-82
2022/12/12 02:00:08;;;;;;;36.40;18.10;;;;;;;-3.31;86.89;94813.56;4989875;28;20196;-80
2022/12/12 02:02:37;;;;;;;30.63;17.47;;;;;;;-3.39;87.15;94813.97;4994699;28;20176;-80
2022/12/12 02:05:12;;;;;;;25.97;15.47;;;;;;;-3.43;87.22;94820.13;4994860;28;20215;-82
2022/12/12 02:07:37;;;;;;;30.57;17.23;;;;;;;-3.50;86.86;94808.66;4992855;28;20184;-80
2022/12/12 02:10:03;;;;;;;28.17;16.67;;;;;;;-3.60;86.61;94815.13;4977764;28;20203;-81
2022/12/12 02:12:28;;;;;;;33.73;17.63;;;;;;;-3.67;87.03;94813.78;4979944;28;20192;-79
2022/12/12 02:14:54;;;;;;;35.07;18.50;;;;;;;-3.73;87.86;94804.78;4977291;28;20307;-83
2022/12/12 02:17:59;;;;;;;31.70;17.57;;;;;;;-3.83;87.48;94809.50;4975183;28;20239;-82
2022/12/12 02:20:34;;;;;;;41.63;18.93;;;;;;;-3.96;88.26;94808.50;4991998;28;20189;-81
2022/12/12 02:23:17;;;;;;;29.80;17.30;;;;;;;-4.05;88.24;94808.97;4985699;28;20654;-80
2022/12/12 02:26:01;;;;;;;33.70;18.40;;;;;;;-4.06;87.86;94800.56;4992403;28;20227;-81
2022/12/12 02:28:54;;;;;;;32.67;17.50;;;;;;;-4.06;88.21;94810.69;4993237;28;20188;-80
2022/12/12 02:31:33;;;;;;;31.93;18.17;;;;;;;-4.14;87.55;94807.72;4969016;28;20641;-81
2022/12/12 02:34:07;;;;;;;39.03;20.50;;;;;;;-4.19;88.21;94806.31;5007882;28;20185;-82
2022/12/12 02:36:46;;;;;;;38.30;18.20;;;;;;;-4.25;88.22;94802.38;4977721;28;20750;-80
2022/12/12 02:39:18;;;;;;;31.57;19.07;;;;;;;-4.24;87.85;94800.66;4986968;28;20188;-80
2022/12/12 02:41:50;;;;;;;33.47;17.47;;;;;;;-4.25;87.81;94807.44;4965306;28;20652;-81
2022/12/12 02:44:29;;;;;;;38.90;18.40;;;;;;;-4.27;87.73;94801.63;4975945;28;20676;-81
2022/12/12 02:47:06;;;;;;;36.00;18.30;;;;;;;-4.32;87.78;94806.94;4976565;28;20215;-81
2022/12/12 02:49:37;;;;;;;32.63;17.00;;;;;;;-4.38;87.99;94804.69;4992636;28;20712;-82
2022/12/12 02:52:04;;;;;;;28.37;15.90;;;;;;;-4.44;87.65;94807.53;4976187;28;20187;-82
2022/12/12 02:54:29;;;;;;;29.23;16.00;;;;;;;-4.52;87.38;94811.34;4990942;28;20701;-82
2022/12/12 02:56:57;;;;;;;29.20;16.07;;;;;;;-4.52;87.78;94808.81;4993291;28;20283;-82
2022/12/12 02:59:29;;;;;;;32.17;17.93;;;;;;;-4.50;87.53;94812.94;5003299;28;20218;-81
2022/12/12 03:02:09;;;;;;;31.53;18.97;;;;;;;-4.66;86.81;94801.91;4993555;28;20284;-82
2022/12/12 03:07:46;;;;;;;30.57;15.73;;;;;;;-4.73;86.98;94801.38;4982494;28;20267;-81
2022/12/12 03:10:30;;;;;;;28.30;15.33;;;;;;;-4.78;87.06;94802.47;5008157;28;20187;-80
2022/12/12 03:13:21;;;;;;;25.23;14.50;;;;;;;-4.85;86.97;94804.50;4997327;28;20188;-82
2022/12/12 03:16:24;;;;;;;26.17;14.07;;;;;;;-4.85;86.79;94792.66;4981011;28;20699;-82
2022/12/12 03:19:25;;;;;;;29.30;14.40;;;;;;;-4.90;87.30;94797.09;4992936;28;20223;-81
2022/12/12 03:22:10;;;;;;;38.30;17.03;;;;;;;-4.91;88.29;94798.00;4986320;28;20196;-81
2022/12/12 03:24:45;;;;;;;39.17;18.47;;;;;;;-4.95;90.07;94796.50;4979784;28;20596;-80
2022/12/12 03:27:14;;;;;;;37.90;17.33;;;;;;;-4.89;89.19;94796.22;4992922;28;20183;-80
2022/12/12 03:29:45;;;;;;;32.90;16.50;;;;;;;-4.89;88.64;94797.94;4989150;28;20250;-80
2022/12/12 03:32:15;;;;;;;30.60;17.23;;;;;;;-4.89;88.41;94806.34;4965692;28;20192;-81
2022/12/12 03:34:48;;;;;;;34.93;17.20;;;;;;;-4.95;89.06;94796.50;4978173;28;20224;-82
2022/12/12 03:37:26;;;;;;;32.67;17.23;;;;;;;-4.92;88.80;94795.56;4980626;28;20212;-82
2022/12/12 03:39:57;;;;;;;30.10;15.13;;;;;;;-4.94;88.35;94797.34;4988169;28;20280;-83
2022/12/12 03:42:29;;;;;;;30.87;15.83;;;;;;;-4.95;88.29;94793.97;4966327;28;20264;-80
2022/12/12 03:45:17;;;;;;;27.13;16.20;;;;;;;-5.00;87.71;94802.69;4979099;28;20209;-82
2022/12/12 03:47:50;;;;;;;31.20;15.23;;;;;;;-5.08;88.62;94802.22;4986589;28;20652;-81
2022/12/12 03:50:21;;;;;;;25.83;14.93;;;;;;;-5.13;87.73;94800.72;4992072;28;20207;-81
2022/12/12 03:53:33;;;;;;;32.63;16.60;;;;;;;-5.14;88.77;94800.78;4996279;28;20192;-81
2022/12/12 03:56:11;;;;;;;35.53;18.70;;;;;;;-5.16;88.40;94807.66;4988484;28;20228;-81
2022/12/12 03:58:45;;;;;;;30.57;15.83;;;;;;;-5.20;88.52;94804.44;4977612;28;20196;-81
2022/12/12 04:01:11;;;;;;;28.97;15.50;;;;;;;-5.23;87.90;94809.63;4995530;28;20192;-81
2022/12/12 04:03:47;;;;;;;30.37;15.73;;;;;;;-5.25;88.09;94801.31;4975743;28;20189;-80
2022/12/12 04:06:30;;;;;;;35.73;17.70;;;;;;;-5.22;88.21;94802.88;4988565;28;20200;-81
2022/12/12 04:15:04;;;;;;;31.90;15.77;;;;;;;-5.13;89.45;94810.84;4985827;28;20218;-82
2022/12/12 04:17:39;;;;;;;29.70;16.10;;;;;;;-5.15;89.99;94801.69;4996377;28;20266;-81
2022/12/12 04:23:23;;;;;;;32.07;16.43;;;;;;;-5.18;90.45;94812.78;4988014;28;20190;-80
2022/12/12 04:29:17;;;;;;;33.27;17.90;;;;;;;-5.15;89.59;94817.69;4991673;28;20187;-82
2022/12/12 04:32:12;;;;;;;37.03;17.03;;;;;;;-5.24;90.27;94809.72;4989879;28;20184;-81
2022/12/12 04:34:59;;;;;;;39.87;18.07;;;;;;;-5.20;90.06;94821.34;4993108;28;20227;-79
2022/12/12 04:37:28;;;;;;;38.27;18.33;;;;;;;-5.23;90.07;94818.94;4993551;28;20211;-81
2022/12/12 04:39:56;;;;;;;34.67;17.30;;;;;;;-5.27;89.41;94823.34;4987218;28;20187;-80
2022/12/12 04:42:24;;;;;;;36.07;17.33;;;;;;;-5.38;91.07;94828.09;4981221;28;20180;-81
2022/12/12 04:44:52;;;;;;;34.43;16.83;;;;;;;-5.28;90.78;94831.00;4976854;28;20708;-82
2022/12/12 04:47:18;;;;;;;31.00;16.77;;;;;;;-5.34;90.55;94833.81;4986400;28;20185;-80
2022/12/12 04:49:45;;;;;;;37.17;18.77;;;;;;;-5.41;90.28;94829.03;4989306;28;20202;-81
2022/12/12 04:52:12;;;;;;;35.63;18.10;;;;;;;-5.33;89.93;94831.19;4994271;28;20188;-80
2022/12/12 04:54:50;;;;;;;31.33;17.03;;;;;;;-5.29;89.91;94831.91;4975172;28;20307;-82
2022/12/12 04:57:26;;;;;;;32.00;17.20;;;;;;;-5.44;90.06;94831.69;4972104;28;20219;-80
2022/12/12 04:59:52;;;;;;;33.33;16.93;;;;;;;-5.48;90.32;94827.69;4978846;28;20192;-80
2022/12/12 05:02:25;;;;;;;33.67;18.27;;;;;;;-5.39;90.04;94835.72;4978368;28;20199;-81
2022/12/12 05:05:03;;;;;;;33.47;17.30;;;;;;;-5.53;89.99;94834.66;4993724;28;20210;-81
2022/12/12 05:07:38;;;;;;;35.90;17.53;;;;;;;-5.50;90.10;94834.50;4991970;28;20675;-80
2022/12/12 05:10:06;;;;;;;35.93;17.83;;;;;;;-5.59;90.57;94831.56;4995224;28;20192;-81
2022/12/12 05:12:42;;;;;;;38.80;18.57;;;;;;;-5.53;90.86;94838.88;4975248;28;20193;-80
2022/12/12 05:15:08;;;;;;;35.87;18.67;;;;;;;-5.51;89.58;94840.44;4989783;28;20207;-82
2022/12/12 05:17:40;;;;;;;35.90;17.30;;;;;;;-5.55;90.04;94841.50;4977212;28;20215;-80
2022/12/12 05:20:05;;;;;;;32.67;17.17;;;;;;;-5.61;90.18;94846.81;4975288;28;20259;-81
2022/12/12 05:22:31;;;;;;;35.77;17.20;;;;;;;-5.68;90.41;94839.56;4986132;28;20671;-81
2022/12/12 05:24:56;;;;;;;33.80;17.60;;;;;;;-5.72;90.33;94839.72;4996582;28;20243;-80
2022/12/12 05:27:21;;;;;;;33.93;17.10;;;;;;;-5.84;91.21;94836.88;4978125;28;20188;-81
2022/12/12 05:29:47;;;;;;;33.70;17.27;;;;;;;-5.82;90.92;94850.31;4983478;28;20571;-81
2022/12/12 05:32:12;;;;;;;39.23;17.10;;;;;;;-5.77;90.59;94845.84;4985385;28;20257;-80
2022/12/12 05:34:37;;;;;;;32.73;17.27;;;;;;;-5.81;90.16;94847.69;4990523;28;20287;-80
2022/12/12 05:37:03;;;;;;;35.23;16.83;;;;;;;-5.89;90.24;94851.44;4993613;28;20207;-81
2022/12/12 05:39:28;;;;;;;30.53;16.70;;;;;;;-5.90;90.38;94844.78;4987267;28;20200;-81
2022/12/12 05:41:53;;;;;;;31.47;15.37;;;;;;;-5.85;90.50;94842.81;4969023;28;20230;-81
2022/12/12 05:44:18;;;;;;;32.93;16.20;;;;;;;-5.69;89.31;94848.84;4973901;28;20215;-79
2022/12/12 05:46:44;;;;;;;31.27;15.73;;;;;;;-5.69;89.73;94843.81;4983450;28;20206;-82
2022/12/12 05:49:09;;;;;;;29.20;16.40;;;;;;;-5.60;89.19;94847.63;4988685;28;20195;-81
2022/12/12 05:51:35;;;;;;;26.57;15.67;;;;;;;-5.61;88.82;94851.06;4994700;28;20190;-79
2022/12/12 05:54:00;;;;;;;30.93;15.57;;;;;;;-5.55;88.79;94856.66;4977018;28;20213;-81
2022/12/12 05:56:25;;;;;;;33.40;16.13;;;;;;;-5.48;88.17;94858.03;4986526;28;20217;-82
2022/12/12 05:58:50;;;;;;;32.43;17.13;;;;;;;-5.54;88.49;94852.44;4983987;28;20188;-81
2022/12/12 06:01:16;;;;;;;31.87;15.37;;;;;;;-5.50;88.63;94859.78;5001186;28;20179;-80
2022/12/12 06:03:41;;;;;;;31.10;15.60;;;;;;;-5.37;88.28;94857.56;4982828;28;20631;-80
2022/12/12 06:06:06;;;;;;;31.27;16.97;;;;;;;-5.46;88.39;94855.44;4988313;28;20266;-82
2022/12/12 06:08:32;;;;;;;29.03;16.03;;;;;;;-5.55;88.89;94855.84;5006772;28;20545;-82
2022/12/12 06:10:57;;;;;;;32.83;16.43;;;;;;;-5.52;88.92;94856.53;4992232;28;20213;-80
2022/12/12 06:13:22;;;;;;;33.27;18.00;;;;;;;-5.45;88.83;94857.91;4989032;28;20192;-81
2022/12/12 06:15:48;;;;;;;31.07;16.73;;;;;;;-5.37;88.50;94861.78;4981262;28;20273;-81
2022/12/12 06:18:13;;;;;;;34.30;16.77;;;;;;;-5.29;88.25;94865.63;4978676;28;20208;-81
2022/12/12 06:20:38;;;;;;;29.93;17.00;;;;;;;-5.28;88.28;94863.91;4982103;28;20904;-82
2022/12/12 06:23:03;;;;;;;34.93;16.63;;;;;;;-5.19;88.02;94863.50;4977663;28;20234;-81
2022/12/12 06:25:29;;;;;;;27.20;15.43;;;;;;;-5.24;87.87;94860.34;4994055;28;20227;-79
2022/12/12 06:27:54;;;;;;;30.17;16.07;;;;;;;-5.21;87.97;94867.81;4976984;28;20195;-82
2022/12/12 06:30:19;;;;;;;31.10;16.07;;;;;;;-5.07;87.90;94865.44;4987813;28;20645;-82
2022/12/12 06:32:45;;;;;;;30.30;16.03;;;;;;;-5.14;88.31;94861.56;4993504;28;20195;-82
2022/12/12 06:35:11;;;;;;;33.60;16.43;;;;;;;-5.20;87.85;94865.19;4977474;28;20224;-81
2022/12/12 06:37:37;;;;;;;28.03;16.47;;;;;;;-5.06;87.96;94866.28;4983337;28;20295;-79
2022/12/12 06:40:03;;;;;;;30.80;15.17;;;;;;;-5.04;87.33;94862.75;4988360;28;20677;-81
2022/12/12 06:42:29;;;;;;;29.00;15.03;;;;;;;-5.16;87.55;94871.75;4978678;28;20226;-82
2022/12/12 06:44:54;;;;;;;27.83;15.23;;;;;;;-5.08;86.88;94866.34;4991242;28;20242;-80
2022/12/12 06:47:19;;;;;;;29.23;14.50;;;;;;;-5.12;87.09;94864.84;4971804;28;20189;-82
2022/12/12 06:49:44;;;;;;;27.83;14.60;;;;;;;-4.97;86.77;94866.66;4967566;28;20191;-81
2022/12/12 06:52:10;;;;;;;30.77;15.00;;;;;;;-5.05;87.00;94873.78;4979534;28;20196;-80
2022/12/12 06:54:35;;;;;;;28.67;14.10;;;;;;;-5.07;86.65;94870.50;4984978;28;20219;-78
2022/12/12 06:57:00;;;;;;;29.23;15.03;;;;;;;-5.19;87.40;94874.44;4991984;28;20261;-80
2022/12/12 06:59:28;;;;;;;36.07;15.73;;;;;;;-5.07;86.95;94878.09;4980433;28;20699;-82
2022/12/12 07:01:55;;;;;;;29.20;15.80;;;;;;;-5.07;86.18;94877.28;4984886;28;20190;-81
2022/12/12 07:04:20;;;;;;;33.33;17.10;;;;;;;-5.20;87.02;94875.34;4972949;28;20200;-80
2022/12/12 07:06:45;;;;;;;26.67;14.60;;;;;;;-5.14;86.97;94877.56;4969250;28;20187;-81
2022/12/12 07:09:11;;;;;;;26.83;14.53;;;;;;;-4.99;86.52;94886.16;4975236;28;20187;-81
2022/12/12 07:11:38;;;;;;;25.63;14.20;;;;;;;-4.92;85.93;94890.06;4988866;28;20191;-81
2022/12/12 07:14:04;;;;;;;26.33;15.23;;;;;;;-4.95;86.04;94884.31;4990182;28;20263;-80
2022/12/12 07:16:29;;;;;;;26.47;14.53;;;;;;;-4.90;86.15;94892.53;4991329;28;20298;-81
2022/12/12 07:18:55;;;;;;;29.43;13.87;;;;;;;-4.89;86.77;94882.31;4994092;28;20219;-81
2022/12/12 07:21:20;;;;;;;24.07;13.63;;;;;;;-4.88;85.84;94880.59;4987096;28;20196;-82
2022/12/12 07:23:46;;;;;;;26.57;13.97;;;;;;;-4.75;86.65;94891.00;4988463;28;20215;-79
2022/12/12 07:26:14;;;;;;;25.83;13.43;;;;;;;-4.75;86.46;94881.69;4991812;28;20242;-80
2022/12/12 07:28:39;;;;;;;27.37;13.97;;;;;;;-4.84;87.03;94892.25;4983819;28;20211;-82
2022/12/12 07:31:13;;;;;;;24.93;13.20;;;;;;;-4.74;86.58;94893.47;4990006;28;20222;-82
2022/12/12 07:33:38;;;;;;;24.83;13.27;;;;;;;-4.67;86.44;94899.88;4996888;28;20184;-82
2022/12/12 07:36:04;;;;;;;25.83;15.37;;;;;;;-4.57;86.22;94905.34;4977077;28;20223;-82
2022/12/12 07:38:30;;;;;;;49.77;24.27;;;;;;;-4.45;85.22;94911.53;4984552;28;20243;-81
2022/12/12 07:40:55;;;;;;;32.37;17.07;;;;;;;-4.58;85.51;94906.22;4982667;28;20199;-80
2022/12/12 07:43:21;;;;;;;22.47;12.87;;;;;;;-4.44;85.30;94916.50;4980179;28;20197;-81
2022/12/12 07:45:47;;;;;;;26.17;13.43;;;;;;;-4.46;85.64;94912.41;4979071;28;20586;-81
2022/12/12 07:48:13;;;;;;;23.10;13.87;;;;;;;-4.36;85.56;94916.16;4968984;28;20194;-81
2022/12/12 07:50:39;;;;;;;28.30;14.87;;;;;;;-4.50;85.57;94911.75;4989633;28;20184;-81
2022/12/12 07:53:05;;;;;;;25.73;13.77;;;;;;;-4.37;85.41;94910.25;4977875;28;20191;-78
2022/12/12 07:55:30;;;;;;;25.33;13.90;;;;;;;-4.15;84.64;94909.22;4975237;28;20213;-81
2022/12/12 07:57:56;;;;;;;27.07;14.23;;;;;;;-4.19;84.61;94913.63;4985210;28;20211;-81
2022/12/12 08:00:21;;;;;;;25.20;13.20;;;;;;;-4.20;84.53;94911.97;4964037;28;20715;-81
2022/12/12 08:02:47;;;;;;;24.73;14.03;;;;;;;-4.12;84.79;94914.16;4976177;28;20200;-79
2022/12/12 08:05:13;;;;;;;24.37;14.23;;;;;;;-3.99;84.76;94922.78;5005490;28;20203;-80
2022/12/12 08:07:38;;;;;;;25.97;14.87;;;;;;;-3.94;84.53;94918.31;4987685;28;20192;-81
2022/12/12 08:10:04;;;;;;;21.77;12.23;;;;;;;-4.24;85.32;94924.88;4988074;28;20184;-80
2022/12/12 08:12:30;;;;;;;24.47;14.37;;;;;;;-4.05;84.28;94920.56;4987604;28;20203;-78
2022/12/12 08:14:55;;;;;;;30.73;15.00;;;;;;;-4.00;84.76;94928.75;5003606;28;20227;-80
2022/12/12 08:17:21;;;;;;;25.13;13.07;;;;;;;-3.79;84.48;94935.31;4976835;28;20224;-82
2022/12/12 08:19:46;;;;;;;24.97;13.97;;;;;;;-3.72;84.91;94933.28;4978581;28;20235;-82
2022/12/12 08:22:11;;;;;;;26.80;14.93;;;;;;;-3.63;84.13;94939.59;4983194;28;20481;-81
2022/12/12 08:24:36;;;;;;;23.03;12.37;;;;;;;-3.51;83.14;94934.75;4968362;28;20271;-78
2022/12/12 08:27:02;;;;;;;22.73;13.43;;;;;;;-3.44;83.12;94937.78;4982138;28;20192;-78
2022/12/12 08:29:27;;;;;;;24.40;13.13;;;;;;;-3.45;83.11;94944.56;4985274;28;20303;-80
2022/12/12 08:31:52;;;;;;;22.20;12.23;;;;;;;-3.28;82.34;94943.69;4992032;28;20192;-81
2022/12/12 08:34:18;;;;;;;25.83;13.77;;;;;;;-3.24;82.04;94942.66;4987111;28;20220;-81
2022/12/12 08:36:44;;;;;;;21.70;12.73;;;;;;;-3.24;81.83;94950.28;4999582;28;20281;-82
2022/12/12 08:39:12;;;;;;;24.03;13.40;;;;;;;-3.16;82.22;94953.25;4973132;28;20188;-81
2022/12/12 08:41:40;;;;;;;25.80;14.10;;;;;;;-3.07;82.14;94953.66;4972941;28;20677;-81
2022/12/12 08:44:06;;;;;;;22.17;13.20;;;;;;;-3.11;81.77;94952.16;4991313;28;20609;-81
2022/12/12 08:46:32;;;;;;;23.97;13.10;;;;;;;-2.98;81.72;94956.53;4985324;28;20184;-80
2022/12/12 08:48:57;;;;;;;23.67;12.47;;;;;;;-2.91;81.95;94951.97;4973682;28;20198;-82
2022/12/12 08:51:22;;;;;;;25.47;14.37;;;;;;;-2.88;81.71;94952.59;4984013;28;20192;-80
2022/12/12 08:53:49;;;;;;;27.57;15.30;;;;;;;-2.89;81.82;94950.97;4984188;28;20179;-80
2022/12/12 08:56:16;;;;;;;25.30;15.40;;;;;;;-2.80;81.77;94957.28;4974114;28;20204;-81
2022/12/12 08:58:41;;;;;;;22.60;13.27;;;;;;;-2.76;80.60;94958.75;4986209;28;20194;-80
2022/12/12 09:01:15;;;;;;;22.70;12.90;;;;;;;-2.91;80.04;94950.25;4973334;28;20196;-80
2022/12/12 09:03:40;;;;;;;20.30;12.93;;;;;;;-2.97;80.72;94954.81;4986399;28;20184;-80
2022/12/12 09:06:06;;;;;;;22.43;13.60;;;;;;;-2.62;80.22;94960.56;4986594;28;20207;-82
2022/12/12 09:08:32;;;;;;;25.27;14.10;;;;;;;-2.57;79.67;94967.00;4971426;28;20271;-81
2022/12/12 09:10:58;;;;;;;25.27;13.20;;;;;;;-2.37;79.00;94967.69;4973487;28;20830;-80
2022/12/12 09:13:24;;;;;;;24.60;13.50;;;;;;;-2.39;78.58;94972.00;4995474;28;20194;-80
2022/12/12 09:15:50;;;;;;;22.37;12.70;;;;;;;-2.16;77.25;94981.75;4984982;28;20760;-82
2022/12/12 09:18:16;;;;;;;22.10;13.40;;;;;;;-2.16;77.50;94979.22;4981442;28;20195;-83
2022/12/12 09:20:41;;;;;;;23.07;12.83;;;;;;;-2.25;78.08;94979.72;4986990;28;20200;-82
2022/12/12 09:23:06;;;;;;;18.93;11.90;;;;;;;-2.46;77.63;94980.91;4992035;28;20250;-83
2022/12/12 09:25:31;;;;;;;19.17;11.50;;;;;;;-2.14;78.30;94981.66;4995949;28;20214;-81
2022/12/12 09:27:57;;;;;;;23.07;12.23;;;;;;;-2.18;77.89;94983.56;4994760;28;20195;-83
2022/12/12 09:30:22;;;;;;;21.87;13.57;;;;;;;-2.00;77.50;94982.53;4984380;28;20200;-82
2022/12/12 09:32:47;;;;;;;20.27;11.87;;;;;;;-2.32;77.83;94991.13;4984352;28;20236;-81
2022/12/12 09:35:13;;;;;;;22.30;13.43;;;;;;;-2.25;78.02;94986.53;4990958;28;20226;-83
2022/12/12 09:37:38;;;;;;;20.00;12.23;;;;;;;-2.07;78.95;94990.59;4975637;28;20212;-82
2022/12/12 09:40:04;;;;;;;21.90;13.57;;;;;;;-2.05;78.87;94987.06;4978145;28;20210;-82
2022/12/12 09:42:34;;;;;;;21.87;12.50;;;;;;;-1.80;77.51;94983.13;4976001;28;20264;-81
2022/12/12 09:45:03;;;;;;;21.10;11.70;;;;;;;-1.67;77.39;94983.28;4984290;28;20211;-83
2022/12/12 09:47:39;;;;;;;18.93;11.53;;;;;;;-1.56;75.98;94981.75;4994744;28;20274;-82
2022/12/12 09:50:31;;;;;;;17.90;10.90;;;;;;;-1.49;75.66;94977.94;4966712;28;20198;-83
2022/12/12 09:53:04;;;;;;;19.20;11.50;;;;;;;-1.62;75.77;94982.09;4989888;28;20191;-82
2022/12/12 09:55:51;;;;;;;27.77;14.27;;;;;;;-1.28;74.71;94969.94;4988887;28;20252;-83
2022/12/12 09:58:22;;;;;;;36.33;17.20;;;;;;;-1.29;74.65;94974.22;5001009;28;20564;-83
2022/12/12 10:01:00;;;;;;;23.90;14.10;;;;;;;-1.19;74.87;94977.03;4985667;28;20186;-83
2022/12/12 10:03:31;;;;;;;18.93;11.10;;;;;;;-1.21;73.94;94979.69;4990521;28;20195;-83
2022/12/12 10:06:06;;;;;;;18.10;11.30;;;;;;;-1.07;73.77;94976.31;4987184;28;20270;-81
2022/12/12 10:08:49;;;;;;;18.27;11.57;;;;;;;-1.19;74.14;94970.22;5002427;28;20190;-81
2022/12/12 10:14:05;;;;;;;19.63;11.40;;;;;;;-1.22;75.15;94974.69;4997530;28;20197;-83
2022/12/12 10:16:31;;;;;;;20.57;10.90;;;;;;;-1.15;74.65;94974.25;5005542;28;21028;-81
2022/12/12 10:19:04;;;;;;;23.13;13.47;;;;;;;-1.41;75.30;94974.94;4985857;28;20180;-82
2022/12/12 10:21:31;;;;;;;23.50;13.40;;;;;;;-1.75;77.58;94974.34;4993146;28;20194;-82
2022/12/12 10:24:04;;;;;;;21.97;13.03;;;;;;;-1.83;77.73;94968.06;4996910;28;20277;-83
2022/12/12 10:26:30;;;;;;;21.80;13.73;;;;;;;-1.48;77.18;94971.94;4972463;28;20262;-82
2022/12/12 10:29:00;;;;;;;28.90;15.87;;;;;;;-1.44;77.46;94964.94;4991183;28;20281;-84
2022/12/12 10:31:31;;;;;;;25.33;14.37;;;;;;;-1.55;77.37;94964.72;4986994;28;20255;-82
2022/12/12 10:34:05;;;;;;;23.60;14.90;;;;;;;-1.33;77.54;94962.56;4991289;28;20280;-82
2022/12/12 10:36:48;;;;;;;25.33;13.70;;;;;;;-1.39;77.95;94969.75;4984538;28;20278;-81
2022/12/12 10:39:19;;;;;;;25.80;15.23;;;;;;;-1.45;78.62;94971.75;4989481;28;20296;-82
2022/12/12 10:42:14;;;;;;;30.67;16.67;;;;;;;-1.11;78.81;94972.31;4987550;28;20191;-81
2022/12/12 10:45:04;;;;;;;23.50;13.87;;;;;;;-0.95;78.07;94975.59;4969909;28;20224;-82
2022/12/12 10:47:30;;;;;;;21.23;12.30;;;;;;;-0.82;76.43;94977.38;4980046;28;20252;-82
2022/12/12 10:50:05;;;;;;;19.27;12.80;;;;;;;-0.79;76.55;94972.94;4973412;28;20196;-83
2022/12/12 10:52:30;;;;;;;15.23;11.00;;;;;;;-0.82;75.91;94973.09;4987487;28;20282;-83
2022/12/12 10:54:59;;;;;;;20.43;12.93;;;;;;;-0.74;75.55;94970.09;4974782;28;20213;-82
2022/12/12 10:57:26;;;;;;;22.83;12.70;;;;;;;-0.67;75.96;94963.72;4985978;28;20214;-82
2022/12/12 10:59:56;;;;;;;20.03;11.17;;;;;;;-0.77;75.89;94965.19;4980457;28;20212;-82
2022/12/12 11:02:26;;;;;;;14.83;10.07;;;;;;;-0.65;75.55;94966.97;4992355;28;20191;-82
2022/12/12 11:05:08;;;;;;;16.53;10.73;;;;;;;-0.52;75.61;94964.50;4987389;28;20212;-82
2022/12/12 11:07:39;;;;;;;22.63;13.67;;;;;;;-0.59;74.33;94959.78;4979599;28;20190;-82
2022/12/12 11:10:37;;;;;;;21.97;13.70;;;;;;;-0.47;74.13;94960.75;4994075;28;20178;-82
2022/12/12 11:13:08;;;;;;;24.93;14.00;;;;;;;-0.43;74.54;94958.84;4989481;28;20261;-83
2022/12/12 11:15:48;;;;;;;21.33;13.33;;;;;;;-0.58;74.03;94965.69;4968796;28;20221;-82
2022/12/12 11:18:16;;;;;;;21.00;13.60;;;;;;;-0.65;75.06;94965.25;4981807;28;20191;-82
2022/12/12 11:20:51;;;;;;;21.77;13.63;;;;;;;-0.63;74.70;94957.50;4956590;28;20194;-83
2022/12/12 11:23:25;;;;;;;18.97;11.23;;;;;;;-0.55;73.60;94962.94;4967759;28;20214;-82
2022/12/12 11:25:57;;;;;;;19.07;11.43;;;;;;;-0.46;71.93;94953.91;4965166;28;20243;-83
2022/12/12 11:28:26;;;;;;;16.17;11.27;;;;;;;-0.57;73.82;94954.56;4966684;28;20194;-83
2022/12/12 11:30:53;;;;;;;21.70;12.80;;;;;;;-0.45;73.87;94953.81;4972182;28;20860;-80
2022/12/12 11:33:21;;;;;;;17.67;9.87;;;;;;;-0.53;72.33;94960.28;4961893;28;20189;-82
2022/12/12 11:35:53;;;;;;;17.33;11.87;;;;;;;-0.73;72.80;94959.78;4967871;28;20247;-81
2022/12/12 11:38:21;;;;;;;20.70;12.50;;;;;;;-0.61;73.08;94958.25;4973963;28;20199;-81
2022/12/12 11:41:04;;;;;;;18.23;11.67;;;;;;;-0.57;72.33;94952.03;4958430;28;20637;-82
2022/12/12 11:43:31;;;;;;;17.27;10.67;;;;;;;-0.54;72.47;94959.47;4972838;28;20191;-83
2022/12/12 11:46:13;;;;;;;17.53;10.53;;;;;;;-0.78;70.79;94963.56;4954572;28;20215;-81